sensor_id;sensor_type;location;lat;lon;timestamp;temperature;humidity
17333;DHT22;8784;50.94667800;7.08448400;2023-05-14T00:02:05;11.60;99.90
17333;DHT22;8784;50.94667800;7.08448400;2023-05-14T00:04:33;11.50;99.90
17333;DHT22;8784;50.94667800;7.08448400;2023-05-14T00:07:00;11.50;99.90
17333;DHT22;8784;50.94667800;7.08448400;2023-05-14T00:09:27;11.50;99.90
17333;DHT22;8784;50.94667800;7.08448400;2023-05-14T00:11:54;11.50;99.90
17333;DHT22;8784;50.94667800;7.08448400;2023-05-14T00:14:21;11.40;99.90
17333;DHT22;8784;50.94667800;7.08448400;2023-05-14T00:16:48;11.30;99.90
17333;DHT22;8784;50.94667800;7.08448400;2023-05-14T00:19:15;11.40;99.90
17333;DHT22;8784;50.94667800;7.08448400;2023-05-14T00:21:43;11.40;99.90
17333;DHT22;8784;50.94667800;7.08448400;2023-05-14T00:24:10;11.30;99.90
17333;DHT22;8784;50.94667800;7.08448400;2023-05-14T00:26:37;11.30;99.90
17333;DHT22;8784;50.94667800;7.08448400;2023-05-14T00:29:04;11.20;99.90
17333;DHT22;8784;50.94667800;7.08448400;2023-05-14T00:31:31;11.30;99.90
17333;DHT22;8784;50.94667800;7.08448400;2023-05-14T00:33:58;11.30;99.90
17333;DHT22;8784;50.94667800;7.08448400;2023-05-14T00:36:24;11.20;99.90
17333;DHT22;8784;50.94667800;7.08448400;2023-05-14T00:38:53;11.20;99.90
17333;DHT22;8784;50.94667800;7.08448400;2023-05-14T00:41:21;11.20;99.90
17333;DHT22;8784;50.94667800;7.08448400;2023-05-14T00:43:48;11.10;99.90
17333;DHT22;8784;50.94667800;7.08448400;2023-05-14T00:46:15;11.10;99.90
17333;DHT22;8784;50.94667800;7.08448400;2023-05-14T00:48:43;11.10;99.90
17333;DHT22;8784;50.94667800;7.08448400;2023-05-14T00:51:10;11.10;99.90
17333;DHT22;8784;50.94667800;7.08448400;2023-05-14T00:53:39;11.10;99.90
17333;DHT22;8784;50.94667800;7.08448400;2023-05-14T00:56:08;11.10;99.90
17333;DHT22;8784;50.94667800;7.08448400;2023-05-14T00:58:35;11.10;99.90
17333;DHT22;8784;50.94667800;7.08448400;2023-05-14T01:01:02;11.00;99.90
17333;DHT22;8784;50.94667800;7.08448400;2023-05-14T01:03:29;11.00;99.90
17333;DHT22;8784;50.94667800;7.08448400;2023-05-14T01:06:02;11.00;99.90
17333;DHT22;8784;50.94667800;7.08448400;2023-05-14T01:08:35;11.00;99.90
17333;DHT22;8784;50.94667800;7.08448400;2023-05-14T01:11:12;10.90;99.90
17333;DHT22;8784;50.94667800;7.08448400;2023-05-14T01:13:48;10.90;99.90
17333;DHT22;8784;50.94667800;7.08448400;2023-05-14T01:16:18;10.80;99.90
17333;DHT22;8784;50.94667800;7.08448400;2023-05-14T01:18:48;10.70;99.90
17333;DHT22;8784;50.94667800;7.08448400;2023-05-14T01:21:32;10.60;99.90
17333;DHT22;8784;50.94667800;7.08448400;2023-05-14T01:24:00;10.50;99.90
17333;DHT22;8784;50.94667800;7.08448400;2023-05-14T01:26:27;10.50;99.90
17333;DHT22;8784;50.94667800;7.08448400;2023-05-14T01:28:59;10.60;99.90
17333;DHT22;8784;50.94667800;7.08448400;2023-05-14T01:31:27;10.60;99.90
17333;DHT22;8784;50.94667800;7.08448400;2023-05-14T01:33:58;10.50;99.90
17333;DHT22;8784;50.94667800;7.08448400;2023-05-14T01:36:28;10.50;99.90
17333;DHT22;8784;50.94667800;7.08448400;2023-05-14T01:38:55;10.40;99.90
17333;DHT22;8784;50.94667800;7.08448400;2023-05-14T01:41:24;10.40;99.90
17333;DHT22;8784;50.94667800;7.08448400;2023-05-14T01:43:52;10.40;99.90
17333;DHT22;8784;50.94667800;7.08448400;2023-05-14T01:46:19;10.40;99.90
17333;DHT22;8784;50.94667800;7.08448400;2023-05-14T01:48:48;10.40;99.90
17333;DHT22;8784;50.94667800;7.08448400;2023-05-14T01:51:15;10.40;99.90
17333;DHT22;8784;50.94667800;7.08448400;2023-05-14T01:53:43;10.30;99.90
17333;DHT22;8784;50.94667800;7.08448400;2023-05-14T01:56:10;10.30;99.90
17333;DHT22;8784;50.94667800;7.08448400;2023-05-14T01:58:37;10.30;99.90
17333;DHT22;8784;50.94667800;7.08448400;2023-05-14T02:01:04;10.40;99.90
17333;DHT22;8784;50.94667800;7.08448400;2023-05-14T02:03:31;10.30;99.90
17333;DHT22;8784;50.94667800;7.08448400;2023-05-14T02:05:58;10.30;99.90
17333;DHT22;8784;50.94667800;7.08448400;2023-05-14T02:08:24;10.20;99.90
17333;DHT22;8784;50.94667800;7.08448400;2023-05-14T02:10:53;10.30;99.90
17333;DHT22;8784;50.94667800;7.08448400;2023-05-14T02:13:20;10.20;99.90
17333;DHT22;8784;50.94667800;7.08448400;2023-05-14T02:15:48;10.20;99.90
17333;DHT22;8784;50.94667800;7.08448400;2023-05-14T02:18:14;10.20;99.90
17333;DHT22;8784;50.94667800;7.08448400;2023-05-14T02:20:41;10.10;99.90
17333;DHT22;8784;50.94667800;7.08448400;2023-05-14T02:23:08;10.10;99.90
17333;DHT22;8784;50.94667800;7.08448400;2023-05-14T02:25:35;10.00;99.90
17333;DHT22;8784;50.94667800;7.08448400;2023-05-14T02:28:04;10.10;99.90
17333;DHT22;8784;50.94667800;7.08448400;2023-05-14T02:30:31;10.00;99.90
17333;DHT22;8784;50.94667800;7.08448400;2023-05-14T02:32:58;10.00;99.90
17333;DHT22;8784;50.94667800;7.08448400;2023-05-14T02:35:25;9.90;99.90
17333;DHT22;8784;50.94667800;7.08448400;2023-05-14T02:37:51;9.90;99.90
17333;DHT22;8784;50.94667800;7.08448400;2023-05-14T02:40:18;9.90;99.90
17333;DHT22;8784;50.94667800;7.08448400;2023-05-14T02:42:45;9.90;99.90
17333;DHT22;8784;50.94667800;7.08448400;2023-05-14T02:45:14;9.80;99.90
17333;DHT22;8784;50.94667800;7.08448400;2023-05-14T02:47:40;9.80;99.90
17333;DHT22;8784;50.94667800;7.08448400;2023-05-14T02:50:08;9.80;99.90
17333;DHT22;8784;50.94667800;7.08448400;2023-05-14T02:52:36;9.80;99.90
17333;DHT22;8784;50.94667800;7.08448400;2023-05-14T02:55:03;9.70;99.90
17333;DHT22;8784;50.94667800;7.08448400;2023-05-14T02:57:30;9.80;99.90
17333;DHT22;8784;50.94667800;7.08448400;2023-05-14T02:59:57;9.70;99.90
17333;DHT22;8784;50.94667800;7.08448400;2023-05-14T03:02:25;9.70;99.90
17333;DHT22;8784;50.94667800;7.08448400;2023-05-14T03:04:52;9.60;99.90
17333;DHT22;8784;50.94667800;7.08448400;2023-05-14T03:07:19;9.60;99.90
17333;DHT22;8784;50.94667800;7.08448400;2023-05-14T03:09:46;9.60;99.90
17333;DHT22;8784;50.94667800;7.08448400;2023-05-14T03:12:12;9.60;99.90
17333;DHT22;8784;50.94667800;7.08448400;2023-05-14T03:14:40;9.60;99.90
17333;DHT22;8784;50.94667800;7.08448400;2023-05-14T03:17:06;9.60;99.90
17333;DHT22;8784;50.94667800;7.08448400;2023-05-14T03:19:35;9.60;99.90
17333;DHT22;8784;50.94667800;7.08448400;2023-05-14T03:22:02;9.50;99.90
17333;DHT22;8784;50.94667800;7.08448400;2023-05-14T03:24:29;9.50;99.90
17333;DHT22;8784;50.94667800;7.08448400;2023-05-14T03:26:56;9.50;99.90
17333;DHT22;8784;50.94667800;7.08448400;2023-05-14T03:29:23;9.40;99.90
17333;DHT22;8784;50.94667800;7.08448400;2023-05-14T03:31:50;9.40;99.90
17333;DHT22;8784;50.94667800;7.08448400;2023-05-14T03:34:19;9.40;99.90
17333;DHT22;8784;50.94667800;7.08448400;2023-05-14T03:36:47;9.40;99.90
17333;DHT22;8784;50.94667800;7.08448400;2023-05-14T03:39:14;9.40;99.90
17333;DHT22;8784;50.94667800;7.08448400;2023-05-14T03:41:44;9.40;99.90
17333;DHT22;8784;50.94667800;7.08448400;2023-05-14T03:44:11;9.40;99.90
17333;DHT22;8784;50.94667800;7.08448400;2023-05-14T03:46:37;9.40;99.90
17333;DHT22;8784;50.94667800;7.08448400;2023-05-14T03:49:05;9.40;99.90
17333;DHT22;8784;50.94667800;7.08448400;2023-05-14T03:51:32;9.30;99.90
17333;DHT22;8784;50.94667800;7.08448400;2023-05-14T03:54:00;9.30;99.90
17333;DHT22;8784;50.94667800;7.08448400;2023-05-14T03:56:27;9.30;99.90
17333;DHT22;8784;50.94667800;7.08448400;2023-05-14T03:58:54;9.40;99.90
17333;DHT22;8784;50.94667800;7.08448400;2023-05-14T04:01:20;9.40;99.90
17333;DHT22;8784;50.94667800;7.08448400;2023-05-14T04:03:48;9.40;99.90
17333;DHT22;8784;50.94667800;7.08448400;2023-05-14T04:06:15;9.40;99.90
17333;DHT22;8784;50.94667800;7.08448400;2023-05-14T04:08:41;9.40;99.90
17333;DHT22;8784;50.94667800;7.08448400;2023-05-14T04:11:10;9.40;99.90
17333;DHT22;8784;50.94667800;7.08448400;2023-05-14T04:13:37;9.40;99.90
17333;DHT22;8784;50.94667800;7.08448400;2023-05-14T04:16:04;9.40;99.90
17333;DHT22;8784;50.94667800;7.08448400;2023-05-14T04:18:31;9.40;99.90
17333;DHT22;8784;50.94667800;7.08448400;2023-05-14T04:20:59;9.50;99.90
17333;DHT22;8784;50.94667800;7.08448400;2023-05-14T04:23:26;9.50;99.90
17333;DHT22;8784;50.94667800;7.08448400;2023-05-14T04:25:53;9.50;99.90
17333;DHT22;8784;50.94667800;7.08448400;2023-05-14T04:28:21;9.50;99.90
17333;DHT22;8784;50.94667800;7.08448400;2023-05-14T04:30:48;9.50;99.90
17333;DHT22;8784;50.94667800;7.08448400;2023-05-14T04:33:16;9.40;99.90
17333;DHT22;8784;50.94667800;7.08448400;2023-05-14T04:35:43;9.40;99.90
17333;DHT22;8784;50.94667800;7.08448400;2023-05-14T04:38:10;9.30;99.90
17333;DHT22;8784;50.94667800;7.08448400;2023-05-14T04:40:38;9.40;99.90
17333;DHT22;8784;50.94667800;7.08448400;2023-05-14T04:43:05;9.40;99.90
17333;DHT22;8784;50.94667800;7.08448400;2023-05-14T04:45:34;9.40;99.90
17333;DHT22;8784;50.94667800;7.08448400;2023-05-14T04:48:01;9.50;99.90
17333;DHT22;8784;50.94667800;7.08448400;2023-05-14T04:50:28;9.50;99.90
17333;DHT22;8784;50.94667800;7.08448400;2023-05-14T04:52:55;9.60;99.90
17333;DHT22;8784;50.94667800;7.08448400;2023-05-14T04:55:22;9.60;99.90
17333;DHT22;8784;50.94667800;7.08448400;2023-05-14T04:57:49;9.60;99.90
17333;DHT22;8784;50.94667800;7.08448400;2023-05-14T05:00:16;9.60;99.90
17333;DHT22;8784;50.94667800;7.08448400;2023-05-14T05:02:47;9.60;99.90
17333;DHT22;8784;50.94667800;7.08448400;2023-05-14T05:05:14;9.70;99.90
17333;DHT22;8784;50.94667800;7.08448400;2023-05-14T05:07:41;9.70;99.90
17333;DHT22;8784;50.94667800;7.08448400;2023-05-14T05:10:08;9.80;99.90
17333;DHT22;8784;50.94667800;7.08448400;2023-05-14T05:12:35;9.90;99.90
17333;DHT22;8784;50.94667800;7.08448400;2023-05-14T05:15:02;9.90;99.90
17333;DHT22;8784;50.94667800;7.08448400;2023-05-14T05:17:29;10.00;99.90
17333;DHT22;8784;50.94667800;7.08448400;2023-05-14T05:19:57;10.10;99.90
17333;DHT22;8784;50.94667800;7.08448400;2023-05-14T05:22:24;10.10;99.90
17333;DHT22;8784;50.94667800;7.08448400;2023-05-14T05:24:51;10.10;99.90
17333;DHT22;8784;50.94667800;7.08448400;2023-05-14T05:27:18;10.30;99.90
17333;DHT22;8784;50.94667800;7.08448400;2023-05-14T05:29:46;10.30;99.90
17333;DHT22;8784;50.94667800;7.08448400;2023-05-14T05:32:13;10.40;99.90
17333;DHT22;8784;50.94667800;7.08448400;2023-05-14T05:34:40;10.50;99.90
17333;DHT22;8784;50.94667800;7.08448400;2023-05-14T05:37:08;10.60;99.90
17333;DHT22;8784;50.94667800;7.08448400;2023-05-14T05:39:38;10.70;99.90
17333;DHT22;8784;50.94667800;7.08448400;2023-05-14T05:42:05;10.80;99.90
17333;DHT22;8784;50.94667800;7.08448400;2023-05-14T05:44:32;10.90;99.90
17333;DHT22;8784;50.94667800;7.08448400;2023-05-14T05:46:59;11.00;99.90
17333;DHT22;8784;50.94667800;7.08448400;2023-05-14T05:49:26;11.20;99.90
17333;DHT22;8784;50.94667800;7.08448400;2023-05-14T05:51:53;11.30;99.90
17333;DHT22;8784;50.94667800;7.08448400;2023-05-14T05:54:22;11.50;99.90
17333;DHT22;8784;50.94667800;7.08448400;2023-05-14T05:56:49;11.60;99.90
17333;DHT22;8784;50.94667800;7.08448400;2023-05-14T05:59:16;11.80;99.90
17333;DHT22;8784;50.94667800;7.08448400;2023-05-14T06:01:43;12.00;99.90
17333;DHT22;8784;50.94667800;7.08448400;2023-05-14T06:04:09;12.20;99.90
17333;DHT22;8784;50.94667800;7.08448400;2023-05-14T06:06:36;12.40;99.90
17333;DHT22;8784;50.94667800;7.08448400;2023-05-14T06:09:03;12.60;99.90
17333;DHT22;8784;50.94667800;7.08448400;2023-05-14T06:11:32;12.80;99.90
17333;DHT22;8784;50.94667800;7.08448400;2023-05-14T06:13:59;12.90;99.90
17333;DHT22;8784;50.94667800;7.08448400;2023-05-14T06:16:26;13.20;99.90
17333;DHT22;8784;50.94667800;7.08448400;2023-05-14T06:18:53;13.40;99.90
17333;DHT22;8784;50.94667800;7.08448400;2023-05-14T06:21:20;13.60;99.90
17333;DHT22;8784;50.94667800;7.08448400;2023-05-14T06:23:47;13.70;99.90
17333;DHT22;8784;50.94667800;7.08448400;2023-05-14T06:26:14;13.90;99.90
17333;DHT22;8784;50.94667800;7.08448400;2023-05-14T06:28:42;14.10;99.90
17333;DHT22;8784;50.94667800;7.08448400;2023-05-14T06:31:09;14.40;99.90
17333;DHT22;8784;50.94667800;7.08448400;2023-05-14T06:33:36;14.70;99.90
17333;DHT22;8784;50.94667800;7.08448400;2023-05-14T06:36:04;15.00;99.90
17333;DHT22;8784;50.94667800;7.08448400;2023-05-14T06:38:32;15.40;99.90
17333;DHT22;8784;50.94667800;7.08448400;2023-05-14T06:40:59;16.00;99.90
17333;DHT22;8784;50.94667800;7.08448400;2023-05-14T06:43:26;17.20;99.90
17333;DHT22;8784;50.94667800;7.08448400;2023-05-14T06:45:54;19.50;99.90
17333;DHT22;8784;50.94667800;7.08448400;2023-05-14T06:48:21;21.90;99.90
17333;DHT22;8784;50.94667800;7.08448400;2023-05-14T06:50:49;24.20;99.90
17333;DHT22;8784;50.94667800;7.08448400;2023-05-14T06:53:16;26.30;98.20
17333;DHT22;8784;50.94667800;7.08448400;2023-05-14T06:55:43;28.00;94.70
17333;DHT22;8784;50.94667800;7.08448400;2023-05-14T06:58:10;29.50;90.70
17333;DHT22;8784;50.94667800;7.08448400;2023-05-14T07:00:37;30.80;83.40
17333;DHT22;8784;50.94667800;7.08448400;2023-05-14T07:03:05;31.80;78.80
17333;DHT22;8784;50.94667800;7.08448400;2023-05-14T07:05:32;32.50;73.50
17333;DHT22;8784;50.94667800;7.08448400;2023-05-14T07:07:59;33.30;70.70
17333;DHT22;8784;50.94667800;7.08448400;2023-05-14T07:10:26;34.10;67.70
17333;DHT22;8784;50.94667800;7.08448400;2023-05-14T07:12:53;34.60;66.10
17333;DHT22;8784;50.94667800;7.08448400;2023-05-14T07:15:19;35.10;63.20
17333;DHT22;8784;50.94667800;7.08448400;2023-05-14T07:17:47;35.60;61.40
17333;DHT22;8784;50.94667800;7.08448400;2023-05-14T07:20:15;36.10;59.60
17333;DHT22;8784;50.94667800;7.08448400;2023-05-14T07:22:42;36.70;58.20
17333;DHT22;8784;50.94667800;7.08448400;2023-05-14T07:25:09;37.20;56.80
17333;DHT22;8784;50.94667800;7.08448400;2023-05-14T07:27:36;37.60;56.00
17333;DHT22;8784;50.94667800;7.08448400;2023-05-14T07:30:04;37.90;54.60
17333;DHT22;8784;50.94667800;7.08448400;2023-05-14T07:32:30;37.90;53.80
17333;DHT22;8784;50.94667800;7.08448400;2023-05-14T07:34:57;37.70;53.40
17333;DHT22;8784;50.94667800;7.08448400;2023-05-14T07:37:26;37.60;53.10
17333;DHT22;8784;50.94667800;7.08448400;2023-05-14T07:39:53;38.20;52.10
17333;DHT22;8784;50.94667800;7.08448400;2023-05-14T07:42:20;38.70;51.10
17333;DHT22;8784;50.94667800;7.08448400;2023-05-14T07:44:47;39.20;50.50
17333;DHT22;8784;50.94667800;7.08448400;2023-05-14T07:47:15;39.60;48.70
17333;DHT22;8784;50.94667800;7.08448400;2023-05-14T07:49:42;40.00;48.10
17333;DHT22;8784;50.94667800;7.08448400;2023-05-14T07:52:09;40.10;47.60
17333;DHT22;8784;50.94667800;7.08448400;2023-05-14T07:54:37;39.70;47.80
17333;DHT22;8784;50.94667800;7.08448400;2023-05-14T07:57:04;39.80;47.70
17333;DHT22;8784;50.94667800;7.08448400;2023-05-14T07:59:32;40.20;47.10
17333;DHT22;8784;50.94667800;7.08448400;2023-05-14T08:01:59;40.60;46.80
17333;DHT22;8784;50.94667800;7.08448400;2023-05-14T08:04:26;40.80;46.20
17333;DHT22;8784;50.94667800;7.08448400;2023-05-14T08:06:53;40.90;45.90
17333;DHT22;8784;50.94667800;7.08448400;2023-05-14T08:09:22;41.00;44.80
17333;DHT22;8784;50.94667800;7.08448400;2023-05-14T08:11:51;41.10;44.10
17333;DHT22;8784;50.94667800;7.08448400;2023-05-14T08:14:17;41.30;43.80
17333;DHT22;8784;50.94667800;7.08448400;2023-05-14T08:16:46;41.60;43.70
17333;DHT22;8784;50.94667800;7.08448400;2023-05-14T08:19:13;41.80;42.90
17333;DHT22;8784;50.94667800;7.08448400;2023-05-14T08:21:40;41.60;43.30
17333;DHT22;8784;50.94667800;7.08448400;2023-05-14T08:24:07;41.60;43.90
17333;DHT22;8784;50.94667800;7.08448400;2023-05-14T08:26:34;41.40;44.00
17333;DHT22;8784;50.94667800;7.08448400;2023-05-14T08:29:03;41.30;44.30
17333;DHT22;8784;50.94667800;7.08448400;2023-05-14T08:31:30;41.60;44.00
17333;DHT22;8784;50.94667800;7.08448400;2023-05-14T08:33:57;41.80;43.30
17333;DHT22;8784;50.94667800;7.08448400;2023-05-14T08:36:24;42.10;43.20
17333;DHT22;8784;50.94667800;7.08448400;2023-05-14T08:38:51;42.50;42.60
17333;DHT22;8784;50.94667800;7.08448400;2023-05-14T08:41:18;42.70;41.30
17333;DHT22;8784;50.94667800;7.08448400;2023-05-14T08:43:50;43.00;40.90
17333;DHT22;8784;50.94667800;7.08448400;2023-05-14T08:46:23;43.40;40.10
17333;DHT22;8784;50.94667800;7.08448400;2023-05-14T08:48:53;43.60;38.80
17333;DHT22;8784;50.94667800;7.08448400;2023-05-14T08:51:21;43.70;39.00
17333;DHT22;8784;50.94667800;7.08448400;2023-05-14T08:53:49;44.20;38.80
17333;DHT22;8784;50.94667800;7.08448400;2023-05-14T08:56:17;44.50;38.30
17333;DHT22;8784;50.94667800;7.08448400;2023-05-14T08:58:46;44.80;37.90
17333;DHT22;8784;50.94667800;7.08448400;2023-05-14T09:01:12;44.90;37.50
17333;DHT22;8784;50.94667800;7.08448400;2023-05-14T09:03:41;45.00;37.40
17333;DHT22;8784;50.94667800;7.08448400;2023-05-14T09:06:10;45.20;36.90
17333;DHT22;8784;50.94667800;7.08448400;2023-05-14T09:08:37;45.10;36.80
17333;DHT22;8784;50.94667800;7.08448400;2023-05-14T09:11:04;45.10;36.60
17333;DHT22;8784;50.94667800;7.08448400;2023-05-14T09:13:31;45.20;36.60
17333;DHT22;8784;50.94667800;7.08448400;2023-05-14T09:15:58;45.40;35.90
17333;DHT22;8784;50.94667800;7.08448400;2023-05-14T09:18:25;45.40;35.70
17333;DHT22;8784;50.94667800;7.08448400;2023-05-14T09:20:53;45.40;35.30
17333;DHT22;8784;50.94667800;7.08448400;2023-05-14T09:23:20;45.20;35.20
17333;DHT22;8784;50.94667800;7.08448400;2023-05-14T09:25:47;45.20;35.60
17333;DHT22;8784;50.94667800;7.08448400;2023-05-14T09:28:16;44.90;35.30
17333;DHT22;8784;50.94667800;7.08448400;2023-05-14T09:30:46;44.60;35.20
17333;DHT22;8784;50.94667800;7.08448400;2023-05-14T09:33:25;44.20;35.60
17333;DHT22;8784;50.94667800;7.08448400;2023-05-14T09:35:57;43.30;36.20
17333;DHT22;8784;50.94667800;7.08448400;2023-05-14T09:38:27;42.50;37.10
17333;DHT22;8784;50.94667800;7.08448400;2023-05-14T09:40:55;41.50;37.60
17333;DHT22;8784;50.94667800;7.08448400;2023-05-14T09:43:22;40.70;37.90
17333;DHT22;8784;50.94667800;7.08448400;2023-05-14T09:45:49;40.00;38.20
17333;DHT22;8784;50.94667800;7.08448400;2023-05-14T09:48:16;39.10;38.70
17333;DHT22;8784;50.94667800;7.08448400;2023-05-14T09:50:43;38.30;39.20
17333;DHT22;8784;50.94667800;7.08448400;2023-05-14T09:53:13;37.80;39.70
17333;DHT22;8784;50.94667800;7.08448400;2023-05-14T09:55:42;37.60;39.70
17333;DHT22;8784;50.94667800;7.08448400;2023-05-14T09:58:09;37.40;39.90
17333;DHT22;8784;50.94667800;7.08448400;2023-05-14T10:00:38;37.20;39.60
17333;DHT22;8784;50.94667800;7.08448400;2023-05-14T10:03:09;37.00;39.50
17333;DHT22;8784;50.94667800;7.08448400;2023-05-14T10:05:39;36.50;39.90
17333;DHT22;8784;50.94667800;7.08448400;2023-05-14T10:08:11;36.50;40.00
17333;DHT22;8784;50.94667800;7.08448400;2023-05-14T10:10:40;36.50;40.30
17333;DHT22;8784;50.94667800;7.08448400;2023-05-14T10:13:11;36.60;40.20
17333;DHT22;8784;50.94667800;7.08448400;2023-05-14T10:15:42;36.40;40.60
17333;DHT22;8784;50.94667800;7.08448400;2023-05-14T10:18:17;36.70;40.50
17333;DHT22;8784;50.94667800;7.08448400;2023-05-14T10:20:47;36.80;39.90
17333;DHT22;8784;50.94667800;7.08448400;2023-05-14T10:23:18;36.60;40.50
17333;DHT22;8784;50.94667800;7.08448400;2023-05-14T10:25:47;36.70;40.10
17333;DHT22;8784;50.94667800;7.08448400;2023-05-14T10:28:14;36.50;39.70
17333;DHT22;8784;50.94667800;7.08448400;2023-05-14T10:30:43;36.40;40.10
17333;DHT22;8784;50.94667800;7.08448400;2023-05-14T10:33:12;35.80;40.20
17333;DHT22;8784;50.94667800;7.08448400;2023-05-14T10:35:56;34.90;40.20
17333;DHT22;8784;50.94667800;7.08448400;2023-05-14T10:38:26;33.80;40.50
17333;DHT22;8784;50.94667800;7.08448400;2023-05-14T10:40:57;32.70;41.40
17333;DHT22;8784;50.94667800;7.08448400;2023-05-14T10:43:26;31.90;42.00
17333;DHT22;8784;50.94667800;7.08448400;2023-05-14T10:45:54;31.00;42.60
17333;DHT22;8784;50.94667800;7.08448400;2023-05-14T10:48:21;30.30;43.30
17333;DHT22;8784;50.94667800;7.08448400;2023-05-14T10:50:49;29.80;43.80
17333;DHT22;8784;50.94667800;7.08448400;2023-05-14T10:53:16;30.00;44.10
17333;DHT22;8784;50.94667800;7.08448400;2023-05-14T10:55:44;30.00;44.10
17333;DHT22;8784;50.94667800;7.08448400;2023-05-14T10:58:14;29.60;43.90
17333;DHT22;8784;50.94667800;7.08448400;2023-05-14T11:00:41;29.00;44.50
17333;DHT22;8784;50.94667800;7.08448400;2023-05-14T11:03:09;28.40;44.70
17333;DHT22;8784;50.94667800;7.08448400;2023-05-14T11:05:39;27.60;45.10
17333;DHT22;8784;50.94667800;7.08448400;2023-05-14T11:08:07;27.00;45.90
17333;DHT22;8784;50.94667800;7.08448400;2023-05-14T11:10:36;26.60;46.70
17333;DHT22;8784;50.94667800;7.08448400;2023-05-14T11:13:03;26.50;47.30
17333;DHT22;8784;50.94667800;7.08448400;2023-05-14T11:15:31;26.30;47.10
17333;DHT22;8784;50.94667800;7.08448400;2023-05-14T11:17:59;26.20;47.50
17333;DHT22;8784;50.94667800;7.08448400;2023-05-14T11:20:26;26.20;48.00
17333;DHT22;8784;50.94667800;7.08448400;2023-05-14T11:22:53;26.10;48.30
17333;DHT22;8784;50.94667800;7.08448400;2023-05-14T11:25:20;25.90;48.70
17333;DHT22;8784;50.94667800;7.08448400;2023-05-14T11:27:50;25.80;49.00
17333;DHT22;8784;50.94667800;7.08448400;2023-05-14T11:30:20;25.70;48.90
17333;DHT22;8784;50.94667800;7.08448400;2023-05-14T11:32:49;25.60;49.10
17333;DHT22;8784;50.94667800;7.08448400;2023-05-14T11:35:17;25.50;49.40
17333;DHT22;8784;50.94667800;7.08448400;2023-05-14T11:37:49;25.50;49.80
17333;DHT22;8784;50.94667800;7.08448400;2023-05-14T11:40:17;25.40;49.60
17333;DHT22;8784;50.94667800;7.08448400;2023-05-14T11:42:45;25.30;50.00
17333;DHT22;8784;50.94667800;7.08448400;2023-05-14T11:45:12;25.20;50.00
17333;DHT22;8784;50.94667800;7.08448400;2023-05-14T11:47:40;25.10;50.00
17333;DHT22;8784;50.94667800;7.08448400;2023-05-14T11:50:11;25.00;50.60
17333;DHT22;8784;50.94667800;7.08448400;2023-05-14T11:52:39;24.80;50.80
17333;DHT22;8784;50.94667800;7.08448400;2023-05-14T11:55:09;24.70;51.20
17333;DHT22;8784;50.94667800;7.08448400;2023-05-14T11:57:37;24.60;51.50
17333;DHT22;8784;50.94667800;7.08448400;2023-05-14T12:00:07;24.50;51.80
17333;DHT22;8784;50.94667800;7.08448400;2023-05-14T12:02:35;24.50;52.20
17333;DHT22;8784;50.94667800;7.08448400;2023-05-14T12:05:04;24.50;52.20
17333;DHT22;8784;50.94667800;7.08448400;2023-05-14T12:07:36;24.60;52.20
17333;DHT22;8784;50.94667800;7.08448400;2023-05-14T12:10:04;24.60;52.50
17333;DHT22;8784;50.94667800;7.08448400;2023-05-14T12:12:35;24.60;52.70
17333;DHT22;8784;50.94667800;7.08448400;2023-05-14T12:15:09;24.70;52.80
17333;DHT22;8784;50.94667800;7.08448400;2023-05-14T12:17:37;25.10;52.50
17333;DHT22;8784;50.94667800;7.08448400;2023-05-14T12:20:07;25.50;52.10
17333;DHT22;8784;50.94667800;7.08448400;2023-05-14T12:22:37;25.80;51.80
17333;DHT22;8784;50.94667800;7.08448400;2023-05-14T12:25:10;25.90;51.50
17333;DHT22;8784;50.94667800;7.08448400;2023-05-14T12:27:43;26.00;51.40
17333;DHT22;8784;50.94667800;7.08448400;2023-05-14T12:30:12;26.00;51.20
17333;DHT22;8784;50.94667800;7.08448400;2023-05-14T12:32:39;26.00;50.90
17333;DHT22;8784;50.94667800;7.08448400;2023-05-14T12:35:07;25.90;51.00
17333;DHT22;8784;50.94667800;7.08448400;2023-05-14T12:37:35;25.70;50.70
17333;DHT22;8784;50.94667800;7.08448400;2023-05-14T12:40:06;25.40;50.90
17333;DHT22;8784;50.94667800;7.08448400;2023-05-14T12:42:33;25.30;51.40
17333;DHT22;8784;50.94667800;7.08448400;2023-05-14T12:45:00;25.30;51.40
17333;DHT22;8784;50.94667800;7.08448400;2023-05-14T12:47:30;25.20;51.40
17333;DHT22;8784;50.94667800;7.08448400;2023-05-14T12:49:58;25.30;51.60
17333;DHT22;8784;50.94667800;7.08448400;2023-05-14T12:52:25;25.50;51.20
17333;DHT22;8784;50.94667800;7.08448400;2023-05-14T12:54:52;25.50;51.10
17333;DHT22;8784;50.94667800;7.08448400;2023-05-14T12:57:21;25.50;50.90
17333;DHT22;8784;50.94667800;7.08448400;2023-05-14T12:59:47;25.60;50.90
17333;DHT22;8784;50.94667800;7.08448400;2023-05-14T13:02:15;25.60;50.00
17333;DHT22;8784;50.94667800;7.08448400;2023-05-14T13:04:43;25.70;50.30
17333;DHT22;8784;50.94667800;7.08448400;2023-05-14T13:07:11;25.70;50.10
17333;DHT22;8784;50.94667800;7.08448400;2023-05-14T13:09:38;25.80;50.00
17333;DHT22;8784;50.94667800;7.08448400;2023-05-14T13:12:06;25.90;49.90
17333;DHT22;8784;50.94667800;7.08448400;2023-05-14T13:14:34;25.90;49.90
17333;DHT22;8784;50.94667800;7.08448400;2023-05-14T13:17:01;25.90;49.70
17333;DHT22;8784;50.94667800;7.08448400;2023-05-14T13:19:28;25.80;49.60
17333;DHT22;8784;50.94667800;7.08448400;2023-05-14T13:21:55;25.70;49.40
17333;DHT22;8784;50.94667800;7.08448400;2023-05-14T13:24:22;25.60;49.20
17333;DHT22;8784;50.94667800;7.08448400;2023-05-14T13:26:50;25.40;49.30
17333;DHT22;8784;50.94667800;7.08448400;2023-05-14T13:29:17;25.10;48.80
17333;DHT22;8784;50.94667800;7.08448400;2023-05-14T13:31:45;24.90;49.00
17333;DHT22;8784;50.94667800;7.08448400;2023-05-14T13:34:12;24.80;49.10
17333;DHT22;8784;50.94667800;7.08448400;2023-05-14T13:36:40;24.80;49.00
17333;DHT22;8784;50.94667800;7.08448400;2023-05-14T13:39:08;24.80;48.60
17333;DHT22;8784;50.94667800;7.08448400;2023-05-14T13:41:36;24.70;48.70